createdAt,value
2022-12-14T00:04:26.418Z,-2.52
2022-12-14T00:09:18.165Z,-2.94
2022-12-14T00:14:09.701Z,-3.72
2022-12-14T00:19:02.369Z,-3.18
2022-12-14T00:23:54.977Z,-2.46
2022-12-14T00:28:47.911Z,-2.81
2022-12-14T00:33:39.953Z,-3.35
2022-12-14T00:38:31.566Z,-2.58
2022-12-14T00:43:23.805Z,-2.57
2022-12-14T00:48:17.421Z,-2.61
2022-12-14T00:53:09.694Z,-2.49
2022-12-14T00:58:01.478Z,-2.31
2022-12-14T01:02:53.005Z,-2.33
2022-12-14T01:07:44.801Z,-2.31
2022-12-14T01:12:40.540Z,-2.73
2022-12-14T01:17:32.302Z,-2.67
2022-12-14T01:22:24.012Z,-2.87
2022-12-14T01:27:15.638Z,-2.89
2022-12-14T01:32:07.237Z,-2.32
2022-12-14T01:36:58.839Z,-3.22
2022-12-14T01:41:54.180Z,-2.29
2022-12-14T01:46:54.504Z,-2.20
2022-12-14T01:51:53.485Z,-2.73
2022-12-14T01:56:46.720Z,-2.98
2022-12-14T02:01:38.757Z,-2.45
2022-12-14T02:06:35.769Z,-2.39
2022-12-14T02:11:59.032Z,-2.88
2022-12-14T02:16:53.517Z,-3.02
2022-12-14T02:21:47.986Z,-2.68
2022-12-14T02:27:02.744Z,-3.08
2022-12-14T02:32:51.755Z,-2.66
2022-12-14T02:37:49.030Z,-2.53
2022-12-14T02:43:13.967Z,-2.86
2022-12-14T02:48:26.117Z,-2.65
2022-12-14T02:53:47.124Z,-2.45
2022-12-14T02:58:41.218Z,-3.16
2022-12-14T03:03:32.850Z,-2.96
2022-12-14T03:08:27.634Z,-2.43
2022-12-14T03:13:25.370Z,-2.38
2022-12-14T03:18:19.670Z,-2.67
2022-12-14T03:23:15.980Z,-2.26
2022-12-14T03:28:13.773Z,-2.22
2022-12-14T03:33:11.617Z,-2.55
2022-12-14T03:38:17.973Z,-2.14
2022-12-14T03:43:09.512Z,-2.11
2022-12-14T03:48:10.262Z,-2.11
2022-12-14T03:53:09.772Z,-2.60
2022-12-14T03:58:30.542Z,-2.05
2022-12-14T04:03:25.045Z,-2.06
2022-12-14T04:08:48.730Z,-2.50
2022-12-14T04:14:04.722Z,-2.57
2022-12-14T04:19:00.688Z,-2.52
2022-12-14T04:24:19.281Z,-2.67
2022-12-14T04:29:35.327Z,-2.05
2022-12-14T04:34:29.989Z,-2.37
2022-12-14T04:39:31.264Z,-2.86
2022-12-14T04:44:32.325Z,-2.72
2022-12-14T04:49:32.255Z,-3.58
2022-12-14T04:54:31.965Z,-2.88
2022-12-14T04:59:24.609Z,-2.42
2022-12-14T05:04:37.621Z,-2.03
2022-12-14T05:09:39.729Z,-2.24
2022-12-14T05:14:40.356Z,-1.97
2022-12-14T05:19:32.410Z,-1.96
2022-12-14T05:24:24.017Z,-2.01
2022-12-14T05:29:16.904Z,-3.16
2022-12-14T05:34:08.511Z,-2.04
2022-12-14T05:39:00.280Z,-2.82
2022-12-14T05:43:52.342Z,-2.10
2022-12-14T05:48:48.986Z,-2.04
2022-12-14T05:53:41.280Z,-2.22
2022-12-14T05:58:34.862Z,-2.05
2022-12-14T06:03:26.855Z,-1.97
2022-12-14T06:08:18.645Z,-2.50
2022-12-14T06:13:10.329Z,-2.01
2022-12-14T06:18:01.880Z,-2.00
2022-12-14T06:22:56.531Z,-2.11
2022-12-14T06:27:52.384Z,-2.46
2022-12-14T06:32:43.917Z,-2.35
2022-12-14T06:37:35.444Z,-2.20
2022-12-14T06:42:27.350Z,-2.20
2022-12-14T06:47:19.182Z,-1.73
2022-12-14T06:52:10.774Z,-1.72
2022-12-14T06:57:05.499Z,-1.75
2022-12-14T07:01:57.081Z,-1.82
2022-12-14T07:06:49.148Z,-2.53
2022-12-14T07:11:41.168Z,-2.48
2022-12-14T07:16:34.855Z,-2.87
2022-12-14T07:21:27.533Z,-1.76
2022-12-14T07:26:22.037Z,-1.95
2022-12-14T07:31:16.917Z,-1.72
2022-12-14T07:36:11.489Z,-1.93
2022-12-14T07:41:05.680Z,-1.89
2022-12-14T07:46:05.762Z,-2.05
2022-12-14T07:51:11.997Z,-2.41
2022-12-14T07:56:27.384Z,-1.98
2022-12-14T08:01:20.258Z,-1.55
2022-12-14T08:06:13.644Z,-1.58
2022-12-14T08:11:06.137Z,-1.55
2022-12-14T08:16:05.803Z,-2.67
2022-12-14T08:20:57.450Z,-1.54
2022-12-14T08:25:54.384Z,-1.89
2022-12-14T08:30:45.999Z,-1.85
2022-12-14T08:35:37.589Z,-1.75
2022-12-14T08:40:29.871Z,-1.22
2022-12-14T08:45:21.752Z,-1.62
2022-12-14T08:50:13.503Z,-1.66
2022-12-14T08:55:07.000Z,-1.27
2022-12-14T09:00:01.704Z,-1.34
2022-12-14T09:04:54.713Z,-1.26
2022-12-14T09:09:46.264Z,-2.41
2022-12-14T09:14:37.833Z,-0.96
2022-12-14T09:19:29.433Z,-0.72
2022-12-14T09:24:21.397Z,-1.76
2022-12-14T09:29:17.650Z,-0.46
2022-12-14T09:34:10.513Z,-1.11
2022-12-14T09:39:02.745Z,-1.80
2022-12-14T09:44:32.674Z,-0.81
2022-12-14T09:49:31.978Z,-0.52
2022-12-14T09:54:27.534Z,-0.37
2022-12-14T09:59:20.845Z,-1.08
2022-12-14T10:04:50.900Z,-0.97
2022-12-14T10:10:08.475Z,-0.77
2022-12-14T10:15:27.294Z,-1.03
2022-12-14T10:20:25.464Z,-0.61
2022-12-14T10:25:24.298Z,-1.55
2022-12-14T10:30:18.597Z,-0.96
2022-12-14T10:35:16.999Z,-0.52
2022-12-14T10:40:33.156Z,-0.64
2022-12-14T10:45:41.572Z,-0.81
2022-12-14T10:50:53.575Z,-1.46
2022-12-14T10:55:46.859Z,-1.10
2022-12-14T11:00:38.627Z,-0.91
2022-12-14T11:05:41.240Z,-1.26
2022-12-14T11:10:35.869Z,-0.77
2022-12-14T11:15:43.077Z,-0.86
2022-12-14T11:20:34.815Z,-0.80
2022-12-14T11:25:38.507Z,-0.83
2022-12-14T11:30:30.475Z,-1.46
2022-12-14T11:35:22.247Z,-1.91
2022-12-14T11:40:25.627Z,-1.35
2022-12-14T11:45:26.465Z,-0.64
2022-12-14T11:50:25.155Z,-1.64
2022-12-14T11:55:26.697Z,-1.00
2022-12-14T12:00:24.394Z,-0.47
2022-12-14T12:05:19.654Z,-0.59
2022-12-14T12:10:18.388Z,-0.48
2022-12-14T12:15:17.262Z,-0.71
2022-12-14T12:20:24.523Z,-0.26
2022-12-14T12:25:30.850Z,-0.51
2022-12-14T12:30:30.996Z,-0.43
2022-12-14T12:35:32.711Z,-1.26
2022-12-14T12:40:34.442Z,-0.30
2022-12-14T12:45:35.958Z,-0.66
2022-12-14T12:50:33.971Z,-0.25
2022-12-14T12:55:28.090Z,-0.50
2022-12-14T13:00:22.528Z,0.54
2022-12-14T13:05:46.325Z,0.58
2022-12-14T13:10:35.907Z,0.57
2022-12-14T13:15:57.141Z,0.95
2022-12-14T13:20:49.747Z,0.94
2022-12-14T13:26:28.234Z,-0.02
2022-12-14T13:32:02.655Z,1.43
2022-12-14T13:37:12.322Z,1.49
2022-12-14T13:42:40.563Z,1.03
2022-12-14T13:47:44.848Z,0.92
2022-12-14T13:52:44.149Z,1.01
2022-12-14T13:57:35.847Z,1.02
2022-12-14T14:02:27.531Z,1.08
2022-12-14T14:07:25.348Z,1.02
2022-12-14T14:12:38.031Z,0.96
2022-12-14T14:17:40.446Z,0.76
2022-12-14T14:22:32.133Z,0.98
2022-12-14T14:27:27.408Z,0.89
2022-12-14T14:32:31.203Z,0.92
2022-12-14T14:37:31.569Z,0.92
2022-12-14T14:42:26.866Z,0.88
2022-12-14T14:47:37.479Z,0.89
2022-12-14T14:52:41.583Z,0.85
2022-12-14T14:57:53.422Z,0.78
2022-12-14T15:02:45.875Z,0.40
2022-12-14T15:07:37.703Z,0.04
2022-12-14T15:12:42.942Z,0.38
2022-12-14T15:17:34.545Z,0.09
2022-12-14T15:22:28.433Z,-0.20
2022-12-14T15:27:34.803Z,-1.12
2022-12-14T15:32:26.542Z,-0.30
2022-12-14T15:37:41.912Z,-1.20
2022-12-14T15:42:33.676Z,-1.04
2022-12-14T15:47:30.485Z,-0.72
2022-12-14T15:52:29.796Z,-2.08
2022-12-14T15:57:21.444Z,-1.65
2022-12-14T16:02:30.599Z,-1.44
2022-12-14T16:07:36.540Z,-1.52
2022-12-14T16:12:32.619Z,-2.75
2022-12-14T16:17:33.989Z,-2.27
2022-12-14T16:22:28.145Z,-2.10
2022-12-14T16:27:20.178Z,-2.49
2022-12-14T16:32:16.328Z,-2.36
2022-12-14T16:37:32.269Z,-2.33
2022-12-14T16:42:27.140Z,-2.34
2022-12-14T16:47:48.565Z,-2.06
2022-12-14T16:52:40.161Z,-2.15
2022-12-14T16:57:31.727Z,-2.19
2022-12-14T17:02:32.915Z,-2.25
2022-12-14T17:07:27.640Z,-2.27
2022-12-14T17:12:19.258Z,-2.31
2022-12-14T17:17:17.100Z,-2.33
2022-12-14T17:22:29.452Z,-2.90
2022-12-14T17:27:22.226Z,-2.44
2022-12-14T17:32:16.782Z,-2.47
2022-12-14T17:37:16.686Z,-2.50
2022-12-14T17:42:12.466Z,-2.51
2022-12-14T17:47:04.062Z,-3.22
2022-12-14T17:51:55.688Z,-2.97
2022-12-14T17:56:47.272Z,-3.31
2022-12-14T18:01:40.855Z,-2.74
2022-12-14T18:06:32.510Z,-2.79
2022-12-14T18:11:26.850Z,-2.66
2022-12-14T18:16:21.151Z,-3.25
2022-12-14T18:21:19.368Z,-2.74
2022-12-14T18:26:12.737Z,-2.89
2022-12-14T18:31:07.332Z,-2.79
2022-12-14T18:35:59.091Z,-2.79
2022-12-14T18:40:53.102Z,-2.81
2022-12-14T18:45:44.822Z,-3.51
2022-12-14T18:50:42.395Z,-3.33
2022-12-14T18:55:34.796Z,-3.13
2022-12-14T19:00:29.666Z,-2.92
2022-12-14T19:05:26.098Z,-2.94
2022-12-14T19:10:23.808Z,-3.41
2022-12-14T19:15:18.129Z,-3.08
2022-12-14T19:20:12.610Z,-3.70
2022-12-14T19:25:04.570Z,-3.63
2022-12-14T19:29:56.428Z,-3.09
2022-12-14T19:34:47.985Z,-3.29
2022-12-14T19:39:39.569Z,-3.40
2022-12-14T19:44:34.478Z,-3.07
2022-12-14T19:49:26.235Z,-3.46
2022-12-14T19:54:18.185Z,-3.89
2022-12-14T19:59:10.020Z,-3.26
2022-12-14T20:04:01.644Z,-3.15
2022-12-14T20:09:00.842Z,-3.16
2022-12-14T20:13:58.139Z,-3.40
2022-12-14T20:18:52.335Z,-3.51
2022-12-14T20:23:44.808Z,-3.36
2022-12-14T20:28:37.013Z,-5.04
2022-12-14T20:33:30.863Z,-3.22
2022-12-14T20:38:22.695Z,-3.18
2022-12-14T20:43:14.432Z,-3.33
2022-12-14T20:48:09.748Z,-3.15
2022-12-14T20:53:01.854Z,-3.69
2022-12-14T20:57:54.003Z,-3.14
2022-12-14T21:02:45.776Z,-3.18
2022-12-14T21:07:38.540Z,-3.15
2022-12-14T21:12:33.177Z,-3.14
2022-12-14T21:17:26.856Z,-3.31
2022-12-14T21:22:21.515Z,-3.26
2022-12-14T21:27:22.521Z,-3.83
2022-12-14T21:32:14.876Z,-3.39
2022-12-14T21:37:06.871Z,-3.54
2022-12-14T21:42:12.581Z,-3.63
2022-12-14T21:47:06.992Z,-3.49
2022-12-14T21:51:58.945Z,-4.13
2022-12-14T21:57:09.661Z,-4.37
2022-12-14T22:02:04.548Z,-4.04
2022-12-14T22:06:56.607Z,-4.52
2022-12-14T22:11:49.016Z,-3.79
2022-12-14T22:16:41.311Z,-3.78
2022-12-14T22:21:33.198Z,-4.21
2022-12-14T22:26:24.806Z,-3.87
2022-12-14T22:31:18.677Z,-3.91
2022-12-14T22:36:10.270Z,-4.70
2022-12-14T22:41:03.368Z,-4.72
2022-12-14T22:45:55.051Z,-4.19
2022-12-14T22:50:46.683Z,-4.12
2022-12-14T22:55:39.073Z,-5.02
2022-12-14T23:00:30.572Z,-4.28
2022-12-14T23:05:22.299Z,-4.95
2022-12-14T23:10:32.620Z,-5.13
2022-12-14T23:15:42.853Z,-4.76
2022-12-14T23:20:53.314Z,-4.28
2022-12-14T23:26:03.674Z,-4.44
2022-12-14T23:31:17.273Z,-4.36
2022-12-14T23:36:27.331Z,-5.08
2022-12-14T23:41:37.477Z,-5.13
2022-12-14T23:46:47.736Z,-4.51
2022-12-14T23:51:58.096Z,-4.63
2022-12-14T23:57:08.348Z,-5.10
